sensor_id;sensor_type;location;lat;lon;timestamp;temperature;humidity
47162;DHT22;32921;53.256;8.198;2022-07-23T00:00:45;15.30;99.90
47162;DHT22;32921;53.256;8.198;2022-07-23T00:03:12;15.30;99.90
47162;DHT22;32921;53.256;8.198;2022-07-23T00:05:38;15.10;99.90
47162;DHT22;32921;53.256;8.198;2022-07-23T00:08:05;15.10;99.90
47162;DHT22;32921;53.256;8.198;2022-07-23T00:10:31;15.10;99.90
47162;DHT22;32921;53.256;8.198;2022-07-23T00:12:57;15.00;99.90
47162;DHT22;32921;53.256;8.198;2022-07-23T00:15:22;14.80;99.90
47162;DHT22;32921;53.256;8.198;2022-07-23T00:17:48;14.90;99.90
47162;DHT22;32921;53.256;8.198;2022-07-23T00:20:14;14.80;99.90
47162;DHT22;32921;53.256;8.198;2022-07-23T00:22:50;14.70;99.90
47162;DHT22;32921;53.256;8.198;2022-07-23T00:25:16;14.50;99.90
47162;DHT22;32921;53.256;8.198;2022-07-23T00:27:42;14.40;99.90
47162;DHT22;32921;53.256;8.198;2022-07-23T00:30:08;14.50;99.90
47162;DHT22;32921;53.256;8.198;2022-07-23T00:32:52;14.50;99.90
47162;DHT22;32921;53.256;8.198;2022-07-23T00:35:20;14.50;99.90
47162;DHT22;32921;53.256;8.198;2022-07-23T00:37:46;14.50;99.90
47162;DHT22;32921;53.256;8.198;2022-07-23T00:40:13;14.60;99.90
47162;DHT22;32921;53.256;8.198;2022-07-23T00:42:39;14.60;99.90
47162;DHT22;32921;53.256;8.198;2022-07-23T00:45:05;14.50;99.90
47162;DHT22;32921;53.256;8.198;2022-07-23T00:47:31;14.50;99.90
47162;DHT22;32921;53.256;8.198;2022-07-23T00:49:57;14.40;99.90
47162;DHT22;32921;53.256;8.198;2022-07-23T00:52:23;14.30;99.90
47162;DHT22;32921;53.256;8.198;2022-07-23T00:54:49;14.30;99.90
47162;DHT22;32921;53.256;8.198;2022-07-23T00:57:15;14.20;99.90
47162;DHT22;32921;53.256;8.198;2022-07-23T00:59:41;14.20;99.90
47162;DHT22;32921;53.256;8.198;2022-07-23T01:02:07;14.20;99.90
47162;DHT22;32921;53.256;8.198;2022-07-23T01:04:32;14.30;99.90
47162;DHT22;32921;53.256;8.198;2022-07-23T01:06:58;14.30;99.90
47162;DHT22;32921;53.256;8.198;2022-07-23T01:09:24;14.30;99.90
47162;DHT22;32921;53.256;8.198;2022-07-23T01:11:51;14.30;99.90
47162;DHT22;32921;53.256;8.198;2022-07-23T01:14:18;14.40;99.90
47162;DHT22;32921;53.256;8.198;2022-07-23T01:16:46;14.50;99.90
47162;DHT22;32921;53.256;8.198;2022-07-23T01:19:12;14.40;99.90
47162;DHT22;32921;53.256;8.198;2022-07-23T01:21:41;14.30;99.90
47162;DHT22;32921;53.256;8.198;2022-07-23T01:24:08;14.20;99.90
47162;DHT22;32921;53.256;8.198;2022-07-23T01:26:34;14.20;99.90
47162;DHT22;32921;53.256;8.198;2022-07-23T01:28:59;14.20;99.90
47162;DHT22;32921;53.256;8.198;2022-07-23T01:31:26;14.20;99.90
47162;DHT22;32921;53.256;8.198;2022-07-23T01:33:51;14.20;99.90
47162;DHT22;32921;53.256;8.198;2022-07-23T01:36:17;14.40;99.90
47162;DHT22;32921;53.256;8.198;2022-07-23T01:38:43;14.50;99.90
47162;DHT22;32921;53.256;8.198;2022-07-23T01:41:08;14.50;99.90
47162;DHT22;32921;53.256;8.198;2022-07-23T01:43:34;14.40;99.90
47162;DHT22;32921;53.256;8.198;2022-07-23T01:45:59;14.50;99.90
47162;DHT22;32921;53.256;8.198;2022-07-23T01:48:25;14.40;99.90
47162;DHT22;32921;53.256;8.198;2022-07-23T01:50:50;14.40;99.90
47162;DHT22;32921;53.256;8.198;2022-07-23T01:53:16;14.40;99.90
47162;DHT22;32921;53.256;8.198;2022-07-23T01:55:42;14.40;99.90
47162;DHT22;32921;53.256;8.198;2022-07-23T01:58:08;14.40;99.90
47162;DHT22;32921;53.256;8.198;2022-07-23T02:00:34;14.50;99.90
47162;DHT22;32921;53.256;8.198;2022-07-23T02:03:00;14.40;99.90
47162;DHT22;32921;53.256;8.198;2022-07-23T02:05:26;14.40;99.90
47162;DHT22;32921;53.256;8.198;2022-07-23T02:07:54;14.30;99.90
47162;DHT22;32921;53.256;8.198;2022-07-23T02:10:20;14.40;99.90
47162;DHT22;32921;53.256;8.198;2022-07-23T02:12:46;14.40;99.90
47162;DHT22;32921;53.256;8.198;2022-07-23T02:15:11;14.40;99.90
47162;DHT22;32921;53.256;8.198;2022-07-23T02:17:37;14.40;99.90
47162;DHT22;32921;53.256;8.198;2022-07-23T02:20:04;14.40;99.90
47162;DHT22;32921;53.256;8.198;2022-07-23T02:22:30;14.40;99.90
47162;DHT22;32921;53.256;8.198;2022-07-23T02:24:55;14.30;99.90
47162;DHT22;32921;53.256;8.198;2022-07-23T02:27:21;14.30;99.90
47162;DHT22;32921;53.256;8.198;2022-07-23T02:29:47;14.30;99.90
47162;DHT22;32921;53.256;8.198;2022-07-23T02:32:12;14.40;99.90
47162;DHT22;32921;53.256;8.198;2022-07-23T02:34:38;14.30;99.90
47162;DHT22;32921;53.256;8.198;2022-07-23T02:37:04;14.40;99.90
47162;DHT22;32921;53.256;8.198;2022-07-23T02:39:29;14.40;99.90
47162;DHT22;32921;53.256;8.198;2022-07-23T02:41:55;14.30;99.90
47162;DHT22;32921;53.256;8.198;2022-07-23T02:44:20;14.30;99.90
47162;DHT22;32921;53.256;8.198;2022-07-23T02:46:46;14.30;99.90
47162;DHT22;32921;53.256;8.198;2022-07-23T02:49:11;14.40;99.90
47162;DHT22;32921;53.256;8.198;2022-07-23T02:51:37;14.30;99.90
47162;DHT22;32921;53.256;8.198;2022-07-23T02:54:03;14.30;99.90
47162;DHT22;32921;53.256;8.198;2022-07-23T02:56:28;14.30;99.90
47162;DHT22;32921;53.256;8.198;2022-07-23T02:58:54;14.20;99.90
47162;DHT22;32921;53.256;8.198;2022-07-23T03:01:19;14.30;99.90
47162;DHT22;32921;53.256;8.198;2022-07-23T03:03:45;14.30;99.90
47162;DHT22;32921;53.256;8.198;2022-07-23T03:06:10;14.30;99.90
47162;DHT22;32921;53.256;8.198;2022-07-23T03:08:43;14.30;99.90
47162;DHT22;32921;53.256;8.198;2022-07-23T03:11:08;14.20;99.90
47162;DHT22;32921;53.256;8.198;2022-07-23T03:13:39;14.30;99.90
47162;DHT22;32921;53.256;8.198;2022-07-23T03:16:06;14.30;99.90
47162;DHT22;32921;53.256;8.198;2022-07-23T03:18:32;14.30;99.90
47162;DHT22;32921;53.256;8.198;2022-07-23T03:20:57;14.30;99.90
47162;DHT22;32921;53.256;8.198;2022-07-23T03:23:23;14.30;99.90
47162;DHT22;32921;53.256;8.198;2022-07-23T03:25:48;14.30;99.90
47162;DHT22;32921;53.256;8.198;2022-07-23T03:28:17;14.30;99.90
47162;DHT22;32921;53.256;8.198;2022-07-23T03:30:44;14.30;99.90
47162;DHT22;32921;53.256;8.198;2022-07-23T03:33:18;14.40;99.90
47162;DHT22;32921;53.256;8.198;2022-07-23T03:35:44;14.30;99.90
47162;DHT22;32921;53.256;8.198;2022-07-23T03:38:10;14.30;99.90
47162;DHT22;32921;53.256;8.198;2022-07-23T03:40:36;14.20;99.90
47162;DHT22;32921;53.256;8.198;2022-07-23T03:43:01;14.20;99.90
47162;DHT22;32921;53.256;8.198;2022-07-23T03:45:27;14.10;99.90
47162;DHT22;32921;53.256;8.198;2022-07-23T03:47:52;14.00;99.90
47162;DHT22;32921;53.256;8.198;2022-07-23T03:50:18;14.00;99.90
47162;DHT22;32921;53.256;8.198;2022-07-23T03:52:44;14.00;99.90
47162;DHT22;32921;53.256;8.198;2022-07-23T03:55:09;13.90;99.90
47162;DHT22;32921;53.256;8.198;2022-07-23T03:57:35;14.00;99.90
47162;DHT22;32921;53.256;8.198;2022-07-23T04:00:02;13.90;99.90
47162;DHT22;32921;53.256;8.198;2022-07-23T04:02:28;13.80;99.90
47162;DHT22;32921;53.256;8.198;2022-07-23T04:04:54;13.80;99.90
47162;DHT22;32921;53.256;8.198;2022-07-23T04:07:19;13.90;99.90
47162;DHT22;32921;53.256;8.198;2022-07-23T04:09:45;13.90;99.90
47162;DHT22;32921;53.256;8.198;2022-07-23T04:12:10;13.70;99.90
47162;DHT22;32921;53.256;8.198;2022-07-23T04:14:36;13.70;99.90
47162;DHT22;32921;53.256;8.198;2022-07-23T04:17:02;13.60;99.90
47162;DHT22;32921;53.256;8.198;2022-07-23T04:19:28;13.40;99.90
47162;DHT22;32921;53.256;8.198;2022-07-23T04:21:56;13.50;99.90
47162;DHT22;32921;53.256;8.198;2022-07-23T04:24:22;13.40;99.90
47162;DHT22;32921;53.256;8.198;2022-07-23T04:26:47;13.30;99.90
47162;DHT22;32921;53.256;8.198;2022-07-23T04:29:13;13.20;99.90
47162;DHT22;32921;53.256;8.198;2022-07-23T04:31:38;13.20;99.90
47162;DHT22;32921;53.256;8.198;2022-07-23T04:34:04;13.10;99.90
47162;DHT22;32921;53.256;8.198;2022-07-23T04:36:29;13.10;99.90
47162;DHT22;32921;53.256;8.198;2022-07-23T04:38:55;13.20;99.90
47162;DHT22;32921;53.256;8.198;2022-07-23T04:41:21;13.20;99.90
47162;DHT22;32921;53.256;8.198;2022-07-23T04:43:46;13.20;99.90
47162;DHT22;32921;53.256;8.198;2022-07-23T04:46:12;13.30;99.90
47162;DHT22;32921;53.256;8.198;2022-07-23T04:48:38;13.30;99.90
47162;DHT22;32921;53.256;8.198;2022-07-23T04:51:03;13.20;99.90
47162;DHT22;32921;53.256;8.198;2022-07-23T04:53:29;13.20;99.90
47162;DHT22;32921;53.256;8.198;2022-07-23T04:55:55;13.40;99.90
47162;DHT22;32921;53.256;8.198;2022-07-23T04:58:21;13.60;99.90
47162;DHT22;32921;53.256;8.198;2022-07-23T05:00:47;13.70;99.90
47162;DHT22;32921;53.256;8.198;2022-07-23T05:03:12;13.90;99.90
47162;DHT22;32921;53.256;8.198;2022-07-23T05:05:38;14.00;99.90
47162;DHT22;32921;53.256;8.198;2022-07-23T05:08:04;14.10;99.90
47162;DHT22;32921;53.256;8.198;2022-07-23T05:10:29;14.10;99.90
47162;DHT22;32921;53.256;8.198;2022-07-23T05:12:55;14.10;99.90
47162;DHT22;32921;53.256;8.198;2022-07-23T05:15:21;14.10;99.90
47162;DHT22;32921;53.256;8.198;2022-07-23T05:17:47;14.20;99.90
47162;DHT22;32921;53.256;8.198;2022-07-23T05:20:13;14.20;99.90
47162;DHT22;32921;53.256;8.198;2022-07-23T05:22:39;14.20;99.90
47162;DHT22;32921;53.256;8.198;2022-07-23T05:25:05;14.20;99.90
47162;DHT22;32921;53.256;8.198;2022-07-23T05:27:33;14.40;99.90
47162;DHT22;32921;53.256;8.198;2022-07-23T05:29:59;14.80;99.90
47162;DHT22;32921;53.256;8.198;2022-07-23T05:32:25;15.40;99.90
47162;DHT22;32921;53.256;8.198;2022-07-23T05:34:50;16.00;99.90
47162;DHT22;32921;53.256;8.198;2022-07-23T05:37:16;16.70;99.90
47162;DHT22;32921;53.256;8.198;2022-07-23T05:39:42;17.10;99.90
47162;DHT22;32921;53.256;8.198;2022-07-23T05:42:08;17.20;99.90
47162;DHT22;32921;53.256;8.198;2022-07-23T05:44:33;17.40;99.90
47162;DHT22;32921;53.256;8.198;2022-07-23T05:46:59;17.30;99.90
47162;DHT22;32921;53.256;8.198;2022-07-23T05:49:25;17.60;99.90
47162;DHT22;32921;53.256;8.198;2022-07-23T05:51:51;17.80;99.90
47162;DHT22;32921;53.256;8.198;2022-07-23T05:54:16;17.50;99.90
47162;DHT22;32921;53.256;8.198;2022-07-23T05:56:42;17.40;99.90
47162;DHT22;32921;53.256;8.198;2022-07-23T05:59:07;17.20;99.90
47162;DHT22;32921;53.256;8.198;2022-07-23T06:01:34;17.10;99.90
47162;DHT22;32921;53.256;8.198;2022-07-23T06:03:59;17.00;99.90
47162;DHT22;32921;53.256;8.198;2022-07-23T06:06:28;17.00;99.90
47162;DHT22;32921;53.256;8.198;2022-07-23T06:08:54;17.10;99.90
47162;DHT22;32921;53.256;8.198;2022-07-23T06:11:19;17.10;99.90
47162;DHT22;32921;53.256;8.198;2022-07-23T06:13:45;17.10;99.90
47162;DHT22;32921;53.256;8.198;2022-07-23T06:16:11;17.00;99.90
47162;DHT22;32921;53.256;8.198;2022-07-23T06:18:37;16.90;99.90
47162;DHT22;32921;53.256;8.198;2022-07-23T06:21:03;17.00;99.90
47162;DHT22;32921;53.256;8.198;2022-07-23T06:23:29;17.10;99.90
47162;DHT22;32921;53.256;8.198;2022-07-23T06:25:54;17.40;99.90
47162;DHT22;32921;53.256;8.198;2022-07-23T06:28:20;17.70;99.90
47162;DHT22;32921;53.256;8.198;2022-07-23T06:30:45;17.80;99.90
47162;DHT22;32921;53.256;8.198;2022-07-23T06:33:11;17.80;99.90
47162;DHT22;32921;53.256;8.198;2022-07-23T06:35:37;17.70;99.90
47162;DHT22;32921;53.256;8.198;2022-07-23T06:38:03;17.60;99.90
47162;DHT22;32921;53.256;8.198;2022-07-23T06:40:28;17.40;99.90
47162;DHT22;32921;53.256;8.198;2022-07-23T06:42:54;17.30;99.90
47162;DHT22;32921;53.256;8.198;2022-07-23T06:45:20;17.20;99.90
47162;DHT22;32921;53.256;8.198;2022-07-23T06:47:45;17.20;99.90
47162;DHT22;32921;53.256;8.198;2022-07-23T06:50:11;17.30;99.90
47162;DHT22;32921;53.256;8.198;2022-07-23T06:52:36;17.40;99.90
47162;DHT22;32921;53.256;8.198;2022-07-23T06:55:02;17.20;99.90
47162;DHT22;32921;53.256;8.198;2022-07-23T06:57:28;17.30;99.90
47162;DHT22;32921;53.256;8.198;2022-07-23T06:59:53;17.60;99.90
47162;DHT22;32921;53.256;8.198;2022-07-23T07:02:19;17.70;99.90
47162;DHT22;32921;53.256;8.198;2022-07-23T07:04:48;17.60;99.90
47162;DHT22;32921;53.256;8.198;2022-07-23T07:07:14;17.80;99.90
47162;DHT22;32921;53.256;8.198;2022-07-23T07:09:39;18.00;99.90
47162;DHT22;32921;53.256;8.198;2022-07-23T07:12:05;18.40;99.90
47162;DHT22;32921;53.256;8.198;2022-07-23T07:14:31;18.40;99.90
47162;DHT22;32921;53.256;8.198;2022-07-23T07:16:56;18.60;99.90
47162;DHT22;32921;53.256;8.198;2022-07-23T07:19:22;18.60;99.90
47162;DHT22;32921;53.256;8.198;2022-07-23T07:21:47;18.80;99.90
47162;DHT22;32921;53.256;8.198;2022-07-23T07:24:13;18.80;99.90
47162;DHT22;32921;53.256;8.198;2022-07-23T07:26:39;19.00;99.90
47162;DHT22;32921;53.256;8.198;2022-07-23T07:29:05;19.10;99.90
47162;DHT22;32921;53.256;8.198;2022-07-23T07:31:30;19.70;99.90
47162;DHT22;32921;53.256;8.198;2022-07-23T07:33:56;19.70;99.90
47162;DHT22;32921;53.256;8.198;2022-07-23T07:36:22;19.60;99.90
47162;DHT22;32921;53.256;8.198;2022-07-23T07:38:48;19.50;99.90
47162;DHT22;32921;53.256;8.198;2022-07-23T07:41:14;19.70;99.90
47162;DHT22;32921;53.256;8.198;2022-07-23T07:43:39;20.20;99.90
47162;DHT22;32921;53.256;8.198;2022-07-23T07:46:05;20.60;99.90
47162;DHT22;32921;53.256;8.198;2022-07-23T07:48:32;20.50;99.90
47162;DHT22;32921;53.256;8.198;2022-07-23T07:50:57;20.50;99.90
47162;DHT22;32921;53.256;8.198;2022-07-23T07:53:23;20.20;99.90
47162;DHT22;32921;53.256;8.198;2022-07-23T07:55:49;20.10;99.90
47162;DHT22;32921;53.256;8.198;2022-07-23T07:58:14;20.20;99.90
47162;DHT22;32921;53.256;8.198;2022-07-23T08:00:40;21.20;99.90
47162;DHT22;32921;53.256;8.198;2022-07-23T08:03:05;21.30;99.90
47162;DHT22;32921;53.256;8.198;2022-07-23T08:05:31;21.40;99.90
47162;DHT22;32921;53.256;8.198;2022-07-23T08:07:58;21.10;99.90
47162;DHT22;32921;53.256;8.198;2022-07-23T08:10:26;21.20;99.90
47162;DHT22;32921;53.256;8.198;2022-07-23T08:12:53;21.30;99.90
47162;DHT22;32921;53.256;8.198;2022-07-23T08:15:21;21.30;99.90
47162;DHT22;32921;53.256;8.198;2022-07-23T08:17:47;21.80;99.90
47162;DHT22;32921;53.256;8.198;2022-07-23T08:20:18;22.10;99.90
47162;DHT22;32921;53.256;8.198;2022-07-23T08:22:50;22.20;98.10
47162;DHT22;32921;53.256;8.198;2022-07-23T08:25:27;22.00;99.80
47162;DHT22;32921;53.256;8.198;2022-07-23T08:27:53;21.00;99.50
47162;DHT22;32921;53.256;8.198;2022-07-23T08:30:19;21.30;99.90
47162;DHT22;32921;53.256;8.198;2022-07-23T08:33:07;21.50;99.40
47162;DHT22;32921;53.256;8.198;2022-07-23T08:35:34;21.30;99.90
47162;DHT22;32921;53.256;8.198;2022-07-23T08:38:01;21.30;98.90
47162;DHT22;32921;53.256;8.198;2022-07-23T08:40:29;21.90;99.90
47162;DHT22;32921;53.256;8.198;2022-07-23T08:42:58;22.50;97.30
47162;DHT22;32921;53.256;8.198;2022-07-23T08:45:25;22.40;95.20
47162;DHT22;32921;53.256;8.198;2022-07-23T08:47:55;22.30;96.20
47162;DHT22;32921;53.256;8.198;2022-07-23T08:50:23;22.00;95.40
47162;DHT22;32921;53.256;8.198;2022-07-23T08:52:49;22.40;96.40
47162;DHT22;32921;53.256;8.198;2022-07-23T08:55:20;23.20;95.90
47162;DHT22;32921;53.256;8.198;2022-07-23T08:57:53;23.40;93.60
47162;DHT22;32921;53.256;8.198;2022-07-23T09:00:20;23.10;93.70
47162;DHT22;32921;53.256;8.198;2022-07-23T09:02:46;22.90;93.60
47162;DHT22;32921;53.256;8.198;2022-07-23T09:05:13;22.30;95.40
47162;DHT22;32921;53.256;8.198;2022-07-23T09:08:14;21.40;95.10
47162;DHT22;32921;53.256;8.198;2022-07-23T09:13:39;21.00;97.40
47162;DHT22;32921;53.256;8.198;2022-07-23T09:16:15;20.60;98.20
47162;DHT22;32921;53.256;8.198;2022-07-23T09:18:50;20.60;99.00
47162;DHT22;32921;53.256;8.198;2022-07-23T09:21:36;20.30;99.90
47162;DHT22;32921;53.256;8.198;2022-07-23T09:24:04;20.00;99.80
47162;DHT22;32921;53.256;8.198;2022-07-23T09:26:39;19.70;99.90
47162;DHT22;32921;53.256;8.198;2022-07-23T09:29:15;19.70;99.90
47162;DHT22;32921;53.256;8.198;2022-07-23T09:31:52;20.20;99.90
47162;DHT22;32921;53.256;8.198;2022-07-23T09:34:26;20.10;98.80
47162;DHT22;32921;53.256;8.198;2022-07-23T09:36:55;20.50;99.00
47162;DHT22;32921;53.256;8.198;2022-07-23T09:39:32;20.80;98.80
47162;DHT22;32921;53.256;8.198;2022-07-23T09:42:22;21.50;97.10
47162;DHT22;32921;53.256;8.198;2022-07-23T09:44:58;22.00;95.90
47162;DHT22;32921;53.256;8.198;2022-07-23T09:47:26;22.10;96.40
47162;DHT22;32921;53.256;8.198;2022-07-23T09:50:11;22.40;96.70
47162;DHT22;32921;53.256;8.198;2022-07-23T09:52:48;23.50;94.10
47162;DHT22;32921;53.256;8.198;2022-07-23T09:55:15;24.40;91.70
47162;DHT22;32921;53.256;8.198;2022-07-23T09:57:42;24.90;91.10
47162;DHT22;32921;53.256;8.198;2022-07-23T10:00:13;25.50;83.90
47162;DHT22;32921;53.256;8.198;2022-07-23T10:02:39;24.90;82.10
47162;DHT22;32921;53.256;8.198;2022-07-23T10:05:06;24.50;83.70
47162;DHT22;32921;53.256;8.198;2022-07-23T10:07:35;24.50;84.20
47162;DHT22;32921;53.256;8.198;2022-07-23T10:10:03;24.90;83.70
47162;DHT22;32921;53.256;8.198;2022-07-23T10:12:29;25.70;80.30
47162;DHT22;32921;53.256;8.198;2022-07-23T10:15:21;25.10;79.40
47162;DHT22;32921;53.256;8.198;2022-07-23T10:17:48;25.20;80.20
47162;DHT22;32921;53.256;8.198;2022-07-23T10:20:14;25.20;78.60
47162;DHT22;32921;53.256;8.198;2022-07-23T10:25:32;24.90;78.50
47162;DHT22;32921;53.256;8.198;2022-07-23T10:31:30;23.70;82.60
47162;DHT22;32921;53.256;8.198;2022-07-23T10:37:28;22.50;89.50
47162;DHT22;32921;53.256;8.198;2022-07-23T10:40:21;22.40;90.90
47162;DHT22;32921;53.256;8.198;2022-07-23T10:42:50;22.90;90.20
47162;DHT22;32921;53.256;8.198;2022-07-23T10:45:34;23.50;88.60
47162;DHT22;32921;53.256;8.198;2022-07-23T10:48:23;23.40;87.20
47162;DHT22;32921;53.256;8.198;2022-07-23T10:59:06;25.50;83.20
47162;DHT22;32921;53.256;8.198;2022-07-23T11:01:37;25.80;75.00
47162;DHT22;32921;53.256;8.198;2022-07-23T11:04:03;24.50;76.00
47162;DHT22;32921;53.256;8.198;2022-07-23T11:17:39;23.60;76.50
47162;DHT22;32921;53.256;8.198;2022-07-23T11:25:29;24.70;70.60
47162;DHT22;32921;53.256;8.198;2022-07-23T11:28:15;24.20;69.00
47162;DHT22;32921;53.256;8.198;2022-07-23T11:30:45;24.10;70.10
47162;DHT22;32921;53.256;8.198;2022-07-23T11:35:47;25.40;70.00
47162;DHT22;32921;53.256;8.198;2022-07-23T11:38:22;26.60;71.30
47162;DHT22;32921;53.256;8.198;2022-07-23T11:40:55;27.60;66.30
47162;DHT22;32921;53.256;8.198;2022-07-23T11:43:23;28.30;64.90
47162;DHT22;32921;53.256;8.198;2022-07-23T11:45:51;28.10;62.90
47162;DHT22;32921;53.256;8.198;2022-07-23T11:48:22;27.10;63.30
47162;DHT22;32921;53.256;8.198;2022-07-23T11:50:49;28.00;64.30
47162;DHT22;32921;53.256;8.198;2022-07-23T11:53:24;28.90;58.70
47162;DHT22;32921;53.256;8.198;2022-07-23T11:55:50;28.20;60.50
47162;DHT22;32921;53.256;8.198;2022-07-23T11:58:15;27.50;60.10
47162;DHT22;32921;53.256;8.198;2022-07-23T12:00:41;27.30;61.10
47162;DHT22;32921;53.256;8.198;2022-07-23T12:03:09;27.40;60.60
47162;DHT22;32921;53.256;8.198;2022-07-23T12:05:39;26.60;61.80
47162;DHT22;32921;53.256;8.198;2022-07-23T12:08:07;25.30;63.60
47162;DHT22;32921;53.256;8.198;2022-07-23T12:10:44;25.50;65.50
47162;DHT22;32921;53.256;8.198;2022-07-23T12:13:13;25.70;64.10
47162;DHT22;32921;53.256;8.198;2022-07-23T12:15:53;26.10;63.10
47162;DHT22;32921;53.256;8.198;2022-07-23T12:18:21;27.90;61.80
47162;DHT22;32921;53.256;8.198;2022-07-23T12:20:50;28.60;61.70
47162;DHT22;32921;53.256;8.198;2022-07-23T12:23:19;28.40;60.20
47162;DHT22;32921;53.256;8.198;2022-07-23T12:25:46;27.50;62.60
47162;DHT22;32921;53.256;8.198;2022-07-23T12:28:17;26.30;64.40
47162;DHT22;32921;53.256;8.198;2022-07-23T12:30:44;25.90;66.70
47162;DHT22;32921;53.256;8.198;2022-07-23T12:33:26;27.10;65.10
47162;DHT22;32921;53.256;8.198;2022-07-23T12:35:54;27.70;62.30
47162;DHT22;32921;53.256;8.198;2022-07-23T12:38:22;26.70;62.60
47162;DHT22;32921;53.256;8.198;2022-07-23T12:40:59;26.00;64.80
47162;DHT22;32921;53.256;8.198;2022-07-23T12:43:36;25.30;67.00
47162;DHT22;32921;53.256;8.198;2022-07-23T12:46:03;24.60;68.90
47162;DHT22;32921;53.256;8.198;2022-07-23T12:48:34;24.80;70.00
47162;DHT22;32921;53.256;8.198;2022-07-23T12:53:29;27.70;64.80
47162;DHT22;32921;53.256;8.198;2022-07-23T12:55:59;28.20;64.20
47162;DHT22;32921;53.256;8.198;2022-07-23T12:58:26;29.20;63.20
47162;DHT22;32921;53.256;8.198;2022-07-23T13:01:03;29.70;58.00
47162;DHT22;32921;53.256;8.198;2022-07-23T13:03:32;29.30;57.80
47162;DHT22;32921;53.256;8.198;2022-07-23T13:05:58;30.50;56.70
47162;DHT22;32921;53.256;8.198;2022-07-23T13:08:26;29.50;59.50
47162;DHT22;32921;53.256;8.198;2022-07-23T13:10:53;30.30;56.60
47162;DHT22;32921;53.256;8.198;2022-07-23T13:13:23;29.80;56.10
47162;DHT22;32921;53.256;8.198;2022-07-23T13:15:50;28.50;58.60
47162;DHT22;32921;53.256;8.198;2022-07-23T13:18:16;27.00;61.00
47162;DHT22;32921;53.256;8.198;2022-07-23T13:20:43;26.20;62.30
47162;DHT22;32921;53.256;8.198;2022-07-23T13:23:08;27.20;62.20
47162;DHT22;32921;53.256;8.198;2022-07-23T13:25:34;27.70;60.00
47162;DHT22;32921;53.256;8.198;2022-07-23T13:28:00;26.90;60.50
47162;DHT22;32921;53.256;8.198;2022-07-23T13:30:26;26.40;61.90
47162;DHT22;32921;53.256;8.198;2022-07-23T13:32:52;27.00;62.10
47162;DHT22;32921;53.256;8.198;2022-07-23T13:35:17;27.80;60.20
47162;DHT22;32921;53.256;8.198;2022-07-23T13:37:43;26.90;60.30
47162;DHT22;32921;53.256;8.198;2022-07-23T13:40:09;25.90;62.20
47162;DHT22;32921;53.256;8.198;2022-07-23T13:42:36;25.20;64.80
47162;DHT22;32921;53.256;8.198;2022-07-23T13:45:04;25.00;62.80
47162;DHT22;32921;53.256;8.198;2022-07-23T13:47:30;25.20;63.90
47162;DHT22;32921;53.256;8.198;2022-07-23T13:49:56;26.10;65.00
47162;DHT22;32921;53.256;8.198;2022-07-23T13:52:21;27.40;61.70
47162;DHT22;32921;53.256;8.198;2022-07-23T13:54:47;28.30;59.40
47162;DHT22;32921;53.256;8.198;2022-07-23T13:57:12;29.00;57.80
47162;DHT22;32921;53.256;8.198;2022-07-23T13:59:38;28.80;57.30
47162;DHT22;32921;53.256;8.198;2022-07-23T14:02:05;28.80;57.60
47162;DHT22;32921;53.256;8.198;2022-07-23T14:04:31;28.70;57.70
47162;DHT22;32921;53.256;8.198;2022-07-23T14:06:57;27.80;58.60
47162;DHT22;32921;53.256;8.198;2022-07-23T14:09:23;27.60;59.50
47162;DHT22;32921;53.256;8.198;2022-07-23T14:11:49;28.00;59.40
47162;DHT22;32921;53.256;8.198;2022-07-23T14:14:16;28.30;57.30
47162;DHT22;32921;53.256;8.198;2022-07-23T14:16:42;28.90;57.90
47162;DHT22;32921;53.256;8.198;2022-07-23T14:19:08;29.10;56.20
47162;DHT22;32921;53.256;8.198;2022-07-23T14:21:34;28.60;56.40
47162;DHT22;32921;53.256;8.198;2022-07-23T14:23:59;27.70;59.10
47162;DHT22;32921;53.256;8.198;2022-07-23T14:26:25;27.30;59.20
47162;DHT22;32921;53.256;8.198;2022-07-23T14:28:51;26.30;60.70
47162;DHT22;32921;53.256;8.198;2022-07-23T14:31:16;26.40;60.80
47162;DHT22;32921;53.256;8.198;2022-07-23T14:33:42;27.80;59.30
47162;DHT22;32921;53.256;8.198;2022-07-23T14:36:08;29.50;56.00
47162;DHT22;32921;53.256;8.198;2022-07-23T14:38:33;29.60;55.10
47162;DHT22;32921;53.256;8.198;2022-07-23T14:40:59;28.10;57.10
47162;DHT22;32921;53.256;8.198;2022-07-23T14:43:24;26.80;60.00
47162;DHT22;32921;53.256;8.198;2022-07-23T14:45:50;28.20;57.40
47162;DHT22;32921;53.256;8.198;2022-07-23T14:48:16;29.70;55.90
47162;DHT22;32921;53.256;8.198;2022-07-23T14:50:41;30.70;54.70
47162;DHT22;32921;53.256;8.198;2022-07-23T14:53:07;31.20;52.80
47162;DHT22;32921;53.256;8.198;2022-07-23T14:55:33;30.50;53.10
47162;DHT22;32921;53.256;8.198;2022-07-23T14:57:58;30.40;53.20
47162;DHT22;32921;53.256;8.198;2022-07-23T15:00:25;30.80;52.10
47162;DHT22;32921;53.256;8.198;2022-07-23T15:02:52;30.70;53.20
47162;DHT22;32921;53.256;8.198;2022-07-23T15:05:18;31.50;51.80
47162;DHT22;32921;53.256;8.198;2022-07-23T15:07:44;32.30;51.60
47162;DHT22;32921;53.256;8.198;2022-07-23T15:10:10;32.40;51.40
47162;DHT22;32921;53.256;8.198;2022-07-23T15:12:35;31.70;51.60
47162;DHT22;32921;53.256;8.198;2022-07-23T15:15:01;31.60;50.80
47162;DHT22;32921;53.256;8.198;2022-07-23T15:17:26;31.20;50.50
47162;DHT22;32921;53.256;8.198;2022-07-23T15:19:52;29.50;53.40
47162;DHT22;32921;53.256;8.198;2022-07-23T15:22:18;28.90;54.50
47162;DHT22;32921;53.256;8.198;2022-07-23T15:24:43;29.50;54.20
47162;DHT22;32921;53.256;8.198;2022-07-23T15:27:09;29.10;54.90
47162;DHT22;32921;53.256;8.198;2022-07-23T15:29:34;29.10;53.60
47162;DHT22;32921;53.256;8.198;2022-07-23T15:32:00;30.30;53.60
47162;DHT22;32921;53.256;8.198;2022-07-23T15:34:26;30.30;52.30
47162;DHT22;32921;53.256;8.198;2022-07-23T15:36:52;29.70;53.90
47162;DHT22;32921;53.256;8.198;2022-07-23T15:39:18;30.00;53.40
47162;DHT22;32921;53.256;8.198;2022-07-23T15:41:43;30.50;52.90
47162;DHT22;32921;53.256;8.198;2022-07-23T15:44:09;30.50;53.00
47162;DHT22;32921;53.256;8.198;2022-07-23T15:46:35;30.50;51.30
47162;DHT22;32921;53.256;8.198;2022-07-23T15:49:00;30.00;52.50
47162;DHT22;32921;53.256;8.198;2022-07-23T15:51:26;30.30;51.50
47162;DHT22;32921;53.256;8.198;2022-07-23T15:53:51;29.50;52.20
47162;DHT22;32921;53.256;8.198;2022-07-23T15:56:17;29.90;52.20
47162;DHT22;32921;53.256;8.198;2022-07-23T15:58:43;29.80;51.90
47162;DHT22;32921;53.256;8.198;2022-07-23T16:01:09;29.50;52.90
47162;DHT22;32921;53.256;8.198;2022-07-23T16:03:35;29.20;54.30
47162;DHT22;32921;53.256;8.198;2022-07-23T16:06:02;29.10;53.10
47162;DHT22;32921;53.256;8.198;2022-07-23T16:08:28;29.20;53.60
47162;DHT22;32921;53.256;8.198;2022-07-23T16:10:53;29.30;53.30
47162;DHT22;32921;53.256;8.198;2022-07-23T16:13:22;30.00;52.20